createdAt,value
2022-12-01T00:03:32.838Z,7.00
2022-12-01T00:08:35.487Z,7.10
2022-12-01T00:13:38.378Z,7.00
2022-12-01T00:18:41.236Z,6.80
2022-12-01T00:23:44.971Z,7.10
2022-12-01T00:28:58.748Z,7.10
2022-12-01T00:34:03.809Z,6.90
2022-12-01T00:39:09.611Z,6.90
2022-12-01T00:44:12.103Z,6.90
2022-12-01T00:49:15.543Z,6.90
2022-12-01T00:54:17.996Z,7.00
2022-12-01T00:59:20.629Z,7.00
2022-12-01T01:04:23.603Z,6.80
2022-12-01T01:09:26.087Z,6.90
2022-12-01T01:14:28.518Z,7.00
2022-12-01T01:19:31.284Z,7.00
2022-12-01T01:24:33.757Z,7.10
2022-12-01T01:29:36.831Z,7.00
2022-12-01T01:34:39.275Z,7.00
2022-12-01T01:39:41.883Z,7.00
2022-12-01T01:44:58.770Z,7.10
2022-12-01T01:50:06.545Z,6.80
2022-12-01T01:55:09.318Z,6.80
2022-12-01T02:00:14.871Z,6.70
2022-12-01T02:05:25.410Z,6.80
2022-12-01T02:10:49.900Z,6.70
2022-12-01T02:16:11.160Z,6.60
2022-12-01T02:21:22.046Z,6.50
2022-12-01T02:26:54.427Z,6.40
2022-12-01T02:31:57.175Z,6.70
2022-12-01T02:37:07.416Z,6.70
2022-12-01T02:42:37.710Z,6.50
2022-12-01T02:47:41.916Z,6.60
2022-12-01T02:52:45.240Z,6.40
2022-12-01T02:57:47.684Z,6.30
2022-12-01T03:03:20.876Z,6.30
2022-12-01T03:08:45.949Z,6.30
2022-12-01T03:14:13.811Z,6.30
2022-12-01T03:19:23.200Z,6.20
2022-12-01T03:24:27.622Z,6.40
2022-12-01T03:29:39.865Z,6.20
2022-12-01T03:34:58.395Z,6.30
2022-12-01T03:40:06.303Z,6.20
2022-12-01T03:45:15.158Z,6.10
2022-12-01T03:50:18.676Z,6.30
2022-12-01T03:55:29.010Z,6.40
2022-12-01T04:00:32.109Z,6.40
2022-12-01T04:05:35.276Z,6.40
2022-12-01T04:10:37.729Z,6.30
2022-12-01T04:15:40.472Z,6.50
2022-12-01T04:20:46.126Z,6.60
2022-12-01T04:25:48.684Z,6.30
2022-12-01T04:30:51.142Z,6.20
2022-12-01T04:36:00.779Z,6.40
2022-12-01T04:41:13.831Z,6.40
2022-12-01T04:46:16.506Z,6.40
2022-12-01T04:51:21.270Z,6.40
2022-12-01T04:56:24.918Z,6.50
2022-12-01T05:01:27.714Z,6.30
2022-12-01T05:06:30.625Z,6.30
2022-12-01T05:11:33.959Z,6.40
2022-12-01T05:16:36.534Z,6.50
2022-12-01T05:21:40.232Z,6.50
2022-12-01T05:26:44.166Z,6.30
2022-12-01T05:31:47.263Z,6.30
2022-12-01T05:36:49.907Z,6.30
2022-12-01T05:41:52.714Z,6.30
2022-12-01T05:46:55.296Z,6.40
2022-12-01T05:51:57.709Z,6.30
2022-12-01T05:57:00.375Z,6.30
2022-12-01T06:02:02.940Z,6.20
2022-12-01T06:07:05.415Z,6.20
2022-12-01T06:12:07.902Z,6.10
2022-12-01T06:17:11.100Z,5.90
2022-12-01T06:22:14.040Z,5.90
2022-12-01T06:27:16.616Z,6.00
2022-12-01T06:32:19.214Z,6.00
2022-12-01T06:37:21.889Z,6.10
2022-12-01T06:42:24.399Z,6.20
2022-12-01T06:47:27.311Z,6.10
2022-12-01T06:52:29.815Z,6.00
2022-12-01T06:57:32.473Z,6.20
2022-12-01T07:02:35.946Z,6.30
2022-12-01T07:07:39.804Z,6.30
2022-12-01T07:12:43.323Z,6.20
2022-12-01T07:17:45.650Z,6.20
2022-12-01T07:22:48.147Z,6.20
2022-12-01T07:27:50.658Z,6.30
2022-12-01T07:32:53.094Z,6.30
2022-12-01T07:37:56.599Z,6.50
2022-12-01T07:42:59.033Z,6.70
2022-12-01T07:48:02.467Z,6.70
2022-12-01T07:53:04.887Z,6.80
2022-12-01T07:58:07.477Z,6.80
2022-12-01T08:03:10.297Z,6.50
2022-12-01T08:08:13.179Z,6.60
2022-12-01T08:13:17.556Z,6.30
2022-12-01T08:18:20.275Z,6.30
2022-12-01T08:23:22.811Z,6.20
2022-12-01T08:28:25.261Z,6.20
2022-12-01T08:33:29.189Z,6.30
2022-12-01T08:38:32.232Z,6.10
2022-12-01T08:49:04.531Z,6.30
2022-12-01T08:54:07.216Z,6.10
2022-12-01T08:59:09.757Z,6.30
2022-12-01T09:04:12.277Z,6.30
2022-12-01T09:09:26.580Z,6.30
2022-12-01T09:14:29.155Z,6.50
2022-12-01T09:19:31.786Z,6.30
2022-12-01T09:24:35.701Z,6.50
2022-12-01T09:29:38.145Z,6.50
2022-12-01T09:34:40.564Z,6.40
2022-12-01T09:39:43.714Z,6.50
2022-12-01T09:44:53.245Z,6.80
2022-12-01T09:50:07.368Z,6.40
2022-12-01T09:55:15.270Z,6.50
2022-12-01T10:00:23.924Z,6.30
2022-12-01T10:05:35.460Z,6.30
2022-12-01T10:10:44.949Z,6.40
2022-12-01T10:16:06.190Z,6.20
2022-12-01T10:21:20.245Z,6.40
2022-12-01T10:27:01.293Z,6.50
2022-12-01T10:32:13.578Z,6.50
2022-12-01T10:37:21.982Z,6.40
2022-12-01T10:42:27.687Z,6.50
2022-12-01T10:47:31.494Z,6.40
2022-12-01T10:52:35.823Z,6.30
2022-12-01T10:57:38.978Z,6.30
2022-12-01T11:02:43.790Z,6.30
2022-12-01T11:07:47.629Z,6.20
2022-12-01T11:12:58.972Z,6.20
2022-12-01T11:18:04.438Z,6.20
2022-12-01T11:23:09.867Z,6.30
2022-12-01T11:28:20.358Z,6.20
2022-12-01T11:33:23.071Z,6.20
2022-12-01T11:38:32.511Z,6.40
2022-12-01T11:43:40.667Z,6.30
2022-12-01T11:48:58.267Z,6.40
2022-12-01T11:54:20.581Z,6.30
2022-12-01T11:59:25.725Z,6.30
2022-12-01T12:04:50.086Z,6.30
2022-12-01T12:10:04.030Z,6.20
2022-12-01T12:15:24.082Z,6.20
2022-12-01T12:20:58.229Z,6.20
2022-12-01T12:26:14.472Z,6.10
2022-12-01T12:31:58.677Z,6.00
2022-12-01T12:37:19.812Z,5.90
2022-12-01T12:42:31.126Z,6.20
2022-12-01T12:48:04.647Z,6.30
2022-12-01T12:53:20.932Z,6.30
2022-12-01T12:58:33.093Z,6.30
2022-12-01T13:04:20.726Z,6.40
2022-12-01T13:09:45.094Z,6.30
2022-12-01T13:15:01.085Z,6.20
2022-12-01T13:20:06.117Z,6.00
2022-12-01T13:25:12.571Z,5.90
2022-12-01T13:30:25.732Z,6.00
2022-12-01T13:41:24.706Z,6.00
2022-12-01T13:46:47.703Z,6.00
2022-12-01T13:52:21.607Z,6.40
2022-12-01T13:57:28.070Z,6.40
2022-12-01T14:02:33.534Z,6.40
2022-12-01T14:07:37.828Z,6.50
2022-12-01T14:12:44.499Z,6.30
2022-12-01T14:17:47.171Z,6.40
2022-12-01T14:23:23.181Z,6.30
2022-12-01T14:29:00.657Z,6.40
2022-12-01T14:34:03.936Z,6.20
2022-12-01T14:39:18.456Z,6.30
2022-12-01T14:44:33.214Z,6.40
2022-12-01T14:49:54.821Z,6.40
2022-12-01T14:55:00.715Z,6.70
2022-12-01T15:00:19.372Z,6.50
2022-12-01T15:05:27.485Z,6.80
2022-12-01T15:10:37.758Z,7.30
2022-12-01T15:15:51.937Z,6.70
2022-12-01T15:21:05.235Z,6.50
2022-12-01T15:26:18.968Z,6.50
2022-12-01T15:31:22.466Z,6.60
2022-12-01T15:36:25.286Z,6.70
2022-12-01T15:41:29.370Z,6.70
2022-12-01T15:46:36.534Z,6.70
2022-12-01T15:51:40.046Z,6.50
2022-12-01T15:56:42.728Z,6.50
2022-12-01T16:01:45.392Z,6.80
2022-12-01T16:07:01.939Z,6.70
2022-12-01T16:12:07.745Z,6.70
2022-12-01T16:17:11.082Z,6.30
2022-12-01T16:22:18.109Z,6.50
2022-12-01T16:27:26.709Z,6.60
2022-12-01T16:32:38.559Z,6.60
2022-12-01T16:37:40.940Z,6.50
2022-12-01T16:42:43.973Z,6.60
2022-12-01T16:47:48.885Z,6.70
2022-12-01T16:52:51.397Z,6.80
2022-12-01T16:57:55.290Z,6.70
2022-12-01T17:02:58.401Z,6.70
2022-12-01T17:08:01.150Z,6.80
2022-12-01T17:13:03.798Z,6.80
2022-12-01T17:18:06.408Z,6.90
2022-12-01T17:23:09.426Z,6.90
2022-12-01T17:28:13.051Z,7.10
2022-12-01T17:33:15.552Z,7.10
2022-12-01T17:38:18.029Z,7.00
2022-12-01T17:43:23.102Z,7.00
2022-12-01T17:48:29.061Z,6.80
2022-12-01T17:53:32.924Z,6.70
2022-12-01T17:58:36.391Z,6.60
2022-12-01T18:03:40.267Z,6.60
2022-12-01T18:08:43.541Z,6.50
2022-12-01T18:13:49.529Z,6.30
2022-12-01T18:18:53.058Z,6.30
2022-12-01T18:23:59.328Z,6.40
2022-12-01T18:29:04.956Z,6.30
2022-12-01T18:34:09.016Z,6.30
2022-12-01T18:39:11.821Z,6.50
2022-12-01T18:44:14.349Z,6.30
2022-12-01T18:49:17.175Z,6.20
2022-12-01T18:54:19.691Z,6.10
2022-12-01T18:59:25.878Z,6.30
2022-12-01T19:04:29.444Z,6.10
2022-12-01T19:09:32.366Z,6.20
2022-12-01T19:14:35.217Z,6.10
2022-12-01T19:19:37.925Z,6.20
2022-12-01T19:24:40.456Z,6.10
2022-12-01T19:29:47.006Z,6.30
2022-12-01T19:34:50.136Z,6.40
2022-12-01T19:39:52.995Z,6.70
2022-12-01T19:44:56.082Z,6.70
2022-12-01T19:49:58.608Z,6.50
2022-12-01T19:55:01.358Z,6.60
2022-12-01T20:00:04.276Z,6.70
2022-12-01T20:05:14.656Z,6.60
2022-12-01T20:10:20.387Z,6.60
2022-12-01T20:15:23.103Z,6.60
2022-12-01T20:20:25.734Z,6.60
2022-12-01T20:25:28.120Z,6.50
2022-12-01T20:30:30.588Z,6.60
2022-12-01T20:35:37.365Z,6.60
2022-12-01T20:40:42.416Z,6.60
2022-12-01T20:45:45.290Z,6.50
2022-12-01T20:50:47.898Z,6.40
2022-12-01T20:55:50.653Z,6.40
2022-12-01T21:00:53.068Z,6.40
2022-12-01T21:05:59.004Z,6.20
2022-12-01T21:11:05.897Z,6.00
2022-12-01T21:16:16.929Z,6.20
2022-12-01T21:21:27.464Z,6.20
2022-12-01T21:26:30.126Z,5.90
2022-12-01T21:31:32.865Z,5.60
2022-12-01T21:36:35.199Z,5.20
2022-12-01T21:41:37.963Z,5.20
2022-12-01T21:46:42.643Z,5.30
2022-12-01T21:51:47.978Z,5.30
2022-12-01T21:56:58.153Z,5.30
2022-12-01T22:02:02.758Z,5.20
2022-12-01T22:07:08.181Z,5.30
2022-12-01T22:12:29.005Z,5.00
2022-12-01T22:17:31.425Z,5.00
2022-12-01T22:22:39.184Z,5.00
2022-12-01T22:27:43.832Z,4.80
2022-12-01T22:32:56.581Z,4.80
2022-12-01T22:38:08.659Z,4.70
2022-12-01T22:43:25.048Z,4.50
2022-12-01T22:48:27.617Z,4.60
2022-12-01T22:53:31.174Z,4.80
2022-12-01T22:58:39.549Z,4.80
2022-12-01T23:03:42.063Z,4.80
2022-12-01T23:08:44.689Z,5.00
2022-12-01T23:13:47.011Z,5.20
2022-12-01T23:18:49.595Z,5.00
2022-12-01T23:23:52.252Z,5.40
2022-12-01T23:28:58.506Z,4.90
2022-12-01T23:34:01.316Z,4.80
2022-12-01T23:39:10.719Z,4.60
2022-12-01T23:44:40.749Z,4.60
2022-12-01T23:49:44.973Z,4.50
2022-12-01T23:54:48.978Z,4.40
2022-12-01T23:59:56.443Z,4.40
